createdAt,value
2017-08-27T00:00:57.786Z,41.30
2017-08-27T00:03:25.343Z,42.83
2017-08-27T00:05:52.880Z,42.50
2017-08-27T00:08:20.742Z,41.27
2017-08-27T00:10:48.258Z,40.30
2017-08-27T00:13:15.797Z,39.17
2017-08-27T00:15:43.753Z,40.07
2017-08-27T00:18:11.300Z,42.27
2017-08-27T00:20:38.834Z,43.07
2017-08-27T00:23:06.654Z,41.00
2017-08-27T00:25:34.191Z,39.60
2017-08-27T00:28:01.717Z,40.17
2017-08-27T00:30:29.545Z,39.97
2017-08-27T00:32:57.068Z,47.07
2017-08-27T00:35:24.593Z,46.23
2017-08-27T00:37:52.386Z,46.20
2017-08-27T00:40:19.922Z,41.97
2017-08-27T00:42:47.465Z,40.83
2017-08-27T00:45:15.440Z,41.37
2017-08-27T00:47:43.005Z,42.53
2017-08-27T00:50:10.529Z,42.43
2017-08-27T00:52:38.443Z,40.70
2017-08-27T00:55:05.979Z,39.63
2017-08-27T00:57:33.515Z,39.73
2017-08-27T01:00:01.437Z,39.40
2017-08-27T01:02:28.981Z,41.37
2017-08-27T01:04:56.529Z,40.57
2017-08-27T01:07:24.426Z,41.13
2017-08-27T01:09:51.949Z,41.00
2017-08-27T01:12:19.502Z,41.50
2017-08-27T01:14:47.353Z,41.20
2017-08-27T01:17:14.871Z,42.50
2017-08-27T01:19:42.393Z,42.70
2017-08-27T01:22:10.321Z,42.23
2017-08-27T01:24:37.840Z,41.43
2017-08-27T01:27:05.384Z,41.93
2017-08-27T01:29:33.290Z,40.57
2017-08-27T01:32:00.840Z,40.80
2017-08-27T01:34:28.409Z,39.90
2017-08-27T01:36:56.217Z,40.20
2017-08-27T01:39:23.756Z,38.90
2017-08-27T01:41:51.315Z,39.17
2017-08-27T01:44:19.211Z,38.40
2017-08-27T01:46:46.739Z,38.57
2017-08-27T01:49:14.261Z,36.53
2017-08-27T01:51:42.089Z,38.00
2017-08-27T01:54:09.625Z,36.20
2017-08-27T01:56:37.157Z,36.40
2017-08-27T01:59:04.972Z,31.43
2017-08-27T02:01:32.517Z,32.20
2017-08-27T02:04:00.045Z,32.40
2017-08-27T02:06:27.872Z,31.13
2017-08-27T02:08:55.378Z,35.00
2017-08-27T02:11:22.940Z,36.57
2017-08-27T02:13:50.811Z,38.43
2017-08-27T02:16:18.335Z,37.23
2017-08-27T02:18:45.886Z,37.17
2017-08-27T02:21:13.819Z,33.87
2017-08-27T02:23:41.352Z,34.80
2017-08-27T02:26:08.883Z,33.53
2017-08-27T02:28:36.819Z,34.37
2017-08-27T02:31:04.340Z,31.80
2017-08-27T02:33:31.864Z,35.30
2017-08-27T02:35:59.691Z,33.33
2017-08-27T02:38:27.232Z,35.13
2017-08-27T02:40:54.763Z,32.40
2017-08-27T02:43:22.793Z,29.40
2017-08-27T02:45:50.363Z,30.10
2017-08-27T02:48:17.905Z,29.30
2017-08-27T02:50:45.755Z,28.00
2017-08-27T02:53:13.270Z,27.93
2017-08-27T02:55:40.794Z,28.77
2017-08-27T02:58:08.659Z,27.03
2017-08-27T03:00:36.187Z,28.17
2017-08-27T03:03:03.706Z,28.07
2017-08-27T03:05:31.739Z,28.13
2017-08-27T03:07:59.264Z,27.30
2017-08-27T03:10:26.805Z,26.23
2017-08-27T03:12:55.424Z,29.77
2017-08-27T03:15:22.945Z,27.07
2017-08-27T03:17:50.468Z,26.67
2017-08-27T03:20:18.309Z,28.73
2017-08-27T03:22:45.848Z,28.70
2017-08-27T03:25:13.398Z,29.53
2017-08-27T03:27:41.352Z,29.67
2017-08-27T03:30:08.895Z,30.10
2017-08-27T03:32:36.433Z,30.33
2017-08-27T03:35:04.430Z,29.10
2017-08-27T03:37:31.951Z,27.73
2017-08-27T03:39:59.506Z,30.10
2017-08-27T03:42:27.410Z,30.03
2017-08-27T03:44:54.952Z,32.23
2017-08-27T03:47:22.475Z,28.80
2017-08-27T03:49:50.364Z,27.93
2017-08-27T03:52:17.892Z,28.70
2017-08-27T03:54:45.426Z,28.30
2017-08-27T03:57:13.296Z,27.60
2017-08-27T03:59:40.841Z,29.73
2017-08-27T04:02:08.370Z,30.27
2017-08-27T04:04:36.288Z,29.37
2017-08-27T04:07:03.824Z,27.73
2017-08-27T04:09:31.366Z,30.30
2017-08-27T04:11:59.266Z,30.17
2017-08-27T04:14:26.796Z,31.07
2017-08-27T04:16:54.349Z,31.33
2017-08-27T04:19:22.242Z,31.00
2017-08-27T04:21:49.773Z,29.67
2017-08-27T04:24:18.074Z,30.30
2017-08-27T04:26:45.939Z,32.00
2017-08-27T04:29:13.476Z,34.93
2017-08-27T04:31:41.030Z,32.33
2017-08-27T04:34:08.826Z,29.83
2017-08-27T04:36:36.363Z,30.97
2017-08-27T04:39:03.899Z,31.47
2017-08-27T04:41:31.822Z,31.90
2017-08-27T04:43:59.369Z,30.47
2017-08-27T04:46:26.906Z,31.00
2017-08-27T04:48:54.838Z,32.77
2017-08-27T04:51:22.391Z,32.50
2017-08-27T04:53:49.938Z,33.43
2017-08-27T04:56:17.822Z,32.00
2017-08-27T04:58:45.368Z,33.37
2017-08-27T05:01:12.938Z,35.97
2017-08-27T05:03:40.775Z,34.60
2017-08-27T05:06:08.327Z,34.80
2017-08-27T05:08:35.866Z,34.40
2017-08-27T05:11:03.904Z,32.90
2017-08-27T05:13:32.413Z,36.13
2017-08-27T05:15:59.975Z,34.30
2017-08-27T05:18:27.914Z,34.03
2017-08-27T05:20:55.441Z,37.47
2017-08-27T05:23:22.982Z,35.43
2017-08-27T05:25:50.802Z,34.73
2017-08-27T05:28:18.341Z,34.90
2017-08-27T05:30:45.874Z,35.67
2017-08-27T05:33:14.499Z,34.10
2017-08-27T05:35:42.032Z,34.33
2017-08-27T05:38:09.599Z,35.23
2017-08-27T05:40:37.567Z,35.50
2017-08-27T05:43:05.123Z,35.13
2017-08-27T05:45:32.652Z,35.97
2017-08-27T05:48:01.001Z,37.30
2017-08-27T05:50:28.561Z,35.97
2017-08-27T05:52:56.090Z,37.33
2017-08-27T05:55:23.978Z,35.57
2017-08-27T05:57:51.577Z,34.33
2017-08-27T06:00:19.104Z,34.00
2017-08-27T06:02:46.941Z,37.60
2017-08-27T06:05:14.472Z,35.20
2017-08-27T06:07:42.038Z,33.77
2017-08-27T06:10:09.947Z,31.60
2017-08-27T06:12:37.485Z,33.80
2017-08-27T06:15:05.068Z,36.47
2017-08-27T06:17:32.937Z,37.10
2017-08-27T06:20:02.378Z,34.77
2017-08-27T06:22:29.901Z,34.77
2017-08-27T06:24:57.764Z,33.63
2017-08-27T06:27:25.283Z,33.60
2017-08-27T06:29:52.808Z,32.57
2017-08-27T06:32:20.698Z,34.20
2017-08-27T06:34:48.226Z,33.80
2017-08-27T06:37:15.765Z,32.30
2017-08-27T06:39:43.653Z,31.07
2017-08-27T06:42:11.176Z,32.37
2017-08-27T06:44:38.788Z,33.23
2017-08-27T06:47:06.635Z,31.00
2017-08-27T06:49:34.175Z,31.77
2017-08-27T06:52:01.716Z,33.00
2017-08-27T06:54:29.522Z,30.43
2017-08-27T06:56:57.061Z,30.20
2017-08-27T06:59:24.619Z,30.50
2017-08-27T07:01:52.504Z,30.57
2017-08-27T07:04:20.056Z,28.77
2017-08-27T07:06:47.598Z,31.00
2017-08-27T07:09:15.603Z,30.23
2017-08-27T07:11:43.161Z,31.20
2017-08-27T07:14:10.696Z,31.20
2017-08-27T07:16:38.608Z,31.03
2017-08-27T07:19:06.141Z,28.37
2017-08-27T07:21:33.702Z,29.07
2017-08-27T07:24:01.603Z,29.13
2017-08-27T07:26:29.124Z,27.93
2017-08-27T07:28:56.702Z,27.90
2017-08-27T07:31:24.589Z,25.90
2017-08-27T07:33:52.136Z,25.50
2017-08-27T07:36:19.671Z,26.00
2017-08-27T07:38:47.501Z,25.40
2017-08-27T07:41:15.084Z,26.70
2017-08-27T07:43:42.612Z,25.97
2017-08-27T07:46:10.552Z,26.40
2017-08-27T07:48:38.075Z,25.97
2017-08-27T07:51:05.618Z,24.20
2017-08-27T07:53:33.571Z,24.73
2017-08-27T07:56:01.101Z,24.90
2017-08-27T07:58:28.630Z,24.60
2017-08-27T08:00:56.517Z,22.70
2017-08-27T08:03:24.090Z,22.40
2017-08-27T08:05:51.629Z,22.87
2017-08-27T08:08:19.513Z,22.90
2017-08-27T08:10:47.078Z,24.70
2017-08-27T08:13:14.687Z,22.27
2017-08-27T08:15:42.625Z,22.37
2017-08-27T08:18:10.165Z,22.07
2017-08-27T08:20:37.691Z,20.87
2017-08-27T08:23:05.619Z,21.67
2017-08-27T08:25:33.122Z,20.67
2017-08-27T08:28:00.689Z,18.17
2017-08-27T08:30:28.564Z,19.20
2017-08-27T08:32:56.139Z,18.17
2017-08-27T08:35:23.733Z,19.40
2017-08-27T08:37:51.679Z,19.07
2017-08-27T08:40:19.237Z,17.40
2017-08-27T08:42:46.752Z,18.13
2017-08-27T08:45:14.601Z,17.00
2017-08-27T08:47:42.123Z,18.57
2017-08-27T08:50:09.717Z,17.60
2017-08-27T08:52:37.771Z,16.67
2017-08-27T08:55:05.342Z,15.20
2017-08-27T08:57:32.893Z,13.50
2017-08-27T09:00:00.890Z,12.13
2017-08-27T09:02:30.404Z,11.67
2017-08-27T09:04:58.179Z,11.50
2017-08-27T09:07:26.062Z,11.00
2017-08-27T09:09:53.614Z,10.17
2017-08-27T09:12:21.150Z,10.10
2017-08-27T09:14:48.989Z,9.10
2017-08-27T09:17:16.560Z,10.60
2017-08-27T09:19:44.378Z,10.10
2017-08-27T09:22:12.275Z,7.60
2017-08-27T09:24:39.834Z,6.70
2017-08-27T09:27:07.398Z,6.50
2017-08-27T09:29:35.370Z,6.90
2017-08-27T09:32:03.959Z,7.30
2017-08-27T09:34:31.487Z,7.90
2017-08-27T09:36:59.629Z,7.83
2017-08-27T09:39:27.229Z,7.60
2017-08-27T09:41:54.857Z,7.77
2017-08-27T09:44:22.781Z,7.27
2017-08-27T09:46:50.404Z,8.03
2017-08-27T09:49:18.014Z,8.73
2017-08-27T09:51:45.877Z,8.33
2017-08-27T09:54:13.410Z,8.90
2017-08-27T09:56:41.860Z,9.70
2017-08-27T09:59:09.699Z,8.33
2017-08-27T10:01:39.307Z,9.10
2017-08-27T10:04:06.855Z,8.83
2017-08-27T10:06:34.791Z,9.10
2017-08-27T10:09:02.544Z,9.23
2017-08-27T10:11:30.110Z,9.00
2017-08-27T10:13:58.033Z,10.80
2017-08-27T10:16:25.577Z,11.37
2017-08-27T10:18:53.126Z,11.77
2017-08-27T10:21:20.956Z,12.60
2017-08-27T10:23:48.492Z,12.00
2017-08-27T10:26:16.046Z,11.93
2017-08-27T10:28:43.898Z,13.40
2017-08-27T10:31:12.165Z,11.63
2017-08-27T10:33:39.719Z,13.30
2017-08-27T10:36:07.587Z,13.57
2017-08-27T10:38:35.149Z,13.63
2017-08-27T10:41:02.718Z,13.63
2017-08-27T10:43:30.544Z,14.50
2017-08-27T10:45:58.990Z,12.60
2017-08-27T10:48:26.534Z,12.70
2017-08-27T10:50:54.578Z,12.43
2017-08-27T10:53:22.122Z,12.70
2017-08-27T10:55:49.662Z,13.97
2017-08-27T10:58:17.624Z,12.93
2017-08-27T11:00:45.209Z,13.50
2017-08-27T11:03:12.786Z,14.90
2017-08-27T11:05:40.690Z,13.10
2017-08-27T11:08:08.352Z,13.80
2017-08-27T11:10:35.901Z,13.27
2017-08-27T11:13:03.826Z,13.33
2017-08-27T11:15:31.432Z,15.53
2017-08-27T11:17:58.985Z,14.00
2017-08-27T11:20:26.939Z,14.30
2017-08-27T11:22:54.488Z,13.67
2017-08-27T11:25:22.052Z,14.70
2017-08-27T11:27:50.001Z,14.00
2017-08-27T11:30:17.568Z,13.67
2017-08-27T11:32:45.136Z,12.33
2017-08-27T11:35:13.058Z,15.10
2017-08-27T11:37:40.628Z,14.23
2017-08-27T11:40:08.242Z,13.67
2017-08-27T11:42:36.241Z,15.20
2017-08-27T11:45:03.819Z,15.57
2017-08-27T11:47:31.447Z,14.77
2017-08-27T11:49:59.350Z,14.63
2017-08-27T11:52:26.956Z,14.90
2017-08-27T11:54:54.503Z,16.33
2017-08-27T11:57:22.419Z,15.73
2017-08-27T11:59:49.961Z,14.63
2017-08-27T12:02:17.529Z,14.67
2017-08-27T12:04:45.424Z,14.60
2017-08-27T12:07:13.072Z,16.00
2017-08-27T12:09:40.598Z,13.67
2017-08-27T12:12:09.671Z,15.50
2017-08-27T12:14:37.320Z,15.17
2017-08-27T12:17:04.923Z,14.73
2017-08-27T12:19:32.875Z,14.17
2017-08-27T12:22:05.506Z,13.57
2017-08-27T12:24:33.428Z,14.37
2017-08-27T12:27:01.078Z,14.00
2017-08-27T12:29:28.679Z,12.93
2017-08-27T12:31:56.571Z,13.27
2017-08-27T12:34:24.146Z,13.27
2017-08-27T12:36:51.705Z,16.40
2017-08-27T12:39:19.819Z,14.10
2017-08-27T12:41:47.396Z,12.90
2017-08-27T12:44:15.018Z,13.97
2017-08-27T12:46:42.861Z,13.00
2017-08-27T12:49:10.439Z,12.63
2017-08-27T12:51:38.148Z,13.83
2017-08-27T12:54:06.039Z,13.23
2017-08-27T12:56:33.735Z,14.70
2017-08-27T12:59:01.418Z,12.57
2017-08-27T13:01:29.384Z,14.07
2017-08-27T13:03:56.956Z,13.50
2017-08-27T13:06:24.515Z,12.50
2017-08-27T13:08:52.532Z,12.13
2017-08-27T13:11:20.073Z,11.00
2017-08-27T13:13:47.631Z,10.97
2017-08-27T13:16:15.590Z,10.50
2017-08-27T13:18:43.128Z,9.60
2017-08-27T13:21:10.682Z,9.60
2017-08-27T13:23:38.244Z,10.10
2017-08-27T13:26:05.788Z,9.70
2017-08-27T13:28:33.724Z,10.73
2017-08-27T13:31:01.315Z,10.60
2017-08-27T13:36:23.467Z,9.70
2017-08-27T13:38:51.347Z,7.43
2017-08-27T13:41:18.894Z,8.80
2017-08-27T13:43:50.237Z,8.97
2017-08-27T13:46:18.095Z,8.57
2017-08-27T13:48:45.667Z,8.17
2017-08-27T13:51:13.205Z,8.03
2017-08-27T13:53:41.097Z,7.17
2017-08-27T13:56:08.666Z,7.47
2017-08-27T13:58:36.173Z,6.67
2017-08-27T14:01:04.156Z,6.93
2017-08-27T14:03:31.782Z,7.50
2017-08-27T14:05:59.369Z,5.73
2017-08-27T14:08:27.195Z,6.90
2017-08-27T14:10:54.807Z,6.20
2017-08-27T14:13:22.491Z,6.30
2017-08-27T14:15:50.371Z,5.97
2017-08-27T14:18:17.961Z,5.20
2017-08-27T14:20:45.488Z,5.23
2017-08-27T14:23:13.321Z,5.77
2017-08-27T14:25:40.884Z,4.90
2017-08-27T14:28:08.455Z,5.10
2017-08-27T14:30:36.387Z,5.87
2017-08-27T14:33:03.953Z,5.90
2017-08-27T14:35:32.286Z,5.57
2017-08-27T14:38:00.714Z,4.90
2017-08-27T14:40:28.303Z,5.30
2017-08-27T14:42:55.851Z,4.67
2017-08-27T14:45:23.738Z,5.00
2017-08-27T14:47:51.282Z,5.67
2017-08-27T14:50:18.820Z,5.80
2017-08-27T14:52:47.489Z,5.00
2017-08-27T14:55:15.096Z,5.03
2017-08-27T14:57:42.635Z,4.90
2017-08-27T15:00:10.751Z,4.60
2017-08-27T15:02:38.265Z,5.00
2017-08-27T15:05:05.826Z,5.23
2017-08-27T15:07:33.746Z,4.53
2017-08-27T15:10:01.295Z,5.47
2017-08-27T15:12:28.834Z,4.60
2017-08-27T15:14:56.685Z,4.87
2017-08-27T15:17:24.783Z,5.63
2017-08-27T15:19:52.318Z,4.97
2017-08-27T15:22:20.255Z,4.93
2017-08-27T15:24:47.789Z,5.20
2017-08-27T15:27:15.324Z,5.10
2017-08-27T15:29:43.241Z,4.90
2017-08-27T15:32:10.798Z,5.00
2017-08-27T15:34:38.324Z,5.10
2017-08-27T15:37:06.151Z,5.50
2017-08-27T15:39:33.693Z,5.30
2017-08-27T15:42:01.244Z,5.80
2017-08-27T15:44:29.108Z,5.80
2017-08-27T15:46:56.708Z,5.67
2017-08-27T15:49:24.282Z,6.10
2017-08-27T15:51:52.284Z,6.40
2017-08-27T15:54:19.810Z,5.93
2017-08-27T15:56:47.345Z,5.50
2017-08-27T15:59:15.166Z,6.33
2017-08-27T16:01:42.732Z,6.33
2017-08-27T16:04:10.238Z,6.07
2017-08-27T16:06:38.107Z,5.67
2017-08-27T16:09:05.614Z,5.60
2017-08-27T16:11:33.197Z,5.83
2017-08-27T16:14:02.775Z,5.67
2017-08-27T16:16:30.332Z,5.83
2017-08-27T16:18:57.892Z,5.87
2017-08-27T16:21:26.197Z,6.33
2017-08-27T16:23:53.787Z,4.93
2017-08-27T16:26:21.736Z,5.07
2017-08-27T16:28:49.313Z,5.20
2017-08-27T16:31:16.870Z,5.20
2017-08-27T16:33:44.708Z,5.27
2017-08-27T16:36:12.253Z,5.80
2017-08-27T16:38:39.814Z,5.50
2017-08-27T16:41:07.717Z,5.10
2017-08-27T16:43:35.263Z,5.53
2017-08-27T16:46:02.799Z,5.37
2017-08-27T16:48:30.636Z,6.00
2017-08-27T16:50:58.206Z,5.17
2017-08-27T16:53:25.729Z,6.33
2017-08-27T16:55:53.546Z,5.50
2017-08-27T16:58:21.084Z,5.70
2017-08-27T17:00:48.729Z,5.30
2017-08-27T17:03:16.713Z,5.60
2017-08-27T17:05:44.336Z,5.50
2017-08-27T17:08:11.930Z,5.00
2017-08-27T17:10:39.752Z,5.40
2017-08-27T17:13:07.298Z,5.10
2017-08-27T17:15:34.857Z,4.17
2017-08-27T17:18:02.697Z,6.10
2017-08-27T17:20:31.535Z,5.10
2017-08-27T17:22:59.911Z,4.40
2017-08-27T17:25:27.797Z,4.67
2017-08-27T17:27:55.361Z,5.27
2017-08-27T17:30:22.954Z,4.77
2017-08-27T17:32:50.913Z,5.40
2017-08-27T17:35:18.438Z,5.20
2017-08-27T17:37:46.003Z,5.20
2017-08-27T17:40:13.978Z,5.20
2017-08-27T17:42:41.530Z,5.57
2017-08-27T17:45:09.221Z,4.40
2017-08-27T17:47:37.144Z,4.83
2017-08-27T17:50:04.754Z,5.20
2017-08-27T17:52:32.298Z,4.10
2017-08-27T17:55:01.179Z,4.23
2017-08-27T17:57:28.852Z,3.70
2017-08-27T17:59:56.611Z,4.27
2017-08-27T18:02:25.277Z,4.40
2017-08-27T18:04:52.799Z,6.83
2017-08-27T18:07:20.366Z,4.20
2017-08-27T18:09:48.371Z,4.60
2017-08-27T18:12:15.928Z,4.00
2017-08-27T18:14:43.511Z,3.83
2017-08-27T18:17:12.248Z,4.83
2017-08-27T18:19:39.852Z,3.97
2017-08-27T18:22:07.420Z,3.93
2017-08-27T18:24:35.256Z,3.73
2017-08-27T18:27:02.785Z,3.87
2017-08-27T18:29:30.323Z,4.17
2017-08-27T18:31:58.320Z,4.03
2017-08-27T18:34:25.891Z,4.60
2017-08-27T18:36:53.552Z,5.30
2017-08-27T18:39:21.508Z,4.10
2017-08-27T18:41:49.110Z,4.57
2017-08-27T18:44:16.691Z,4.03
2017-08-27T18:46:44.681Z,3.20
2017-08-27T18:49:12.243Z,7.43
2017-08-27T18:51:39.774Z,5.50
2017-08-27T18:54:07.925Z,4.33
2017-08-27T18:56:42.607Z,4.67
2017-08-27T18:59:10.547Z,4.60
2017-08-27T19:01:38.112Z,5.80
2017-08-27T19:04:05.752Z,6.07
2017-08-27T19:06:33.693Z,4.00
2017-08-27T19:09:01.276Z,5.93
2017-08-27T19:11:29.625Z,7.07
2017-08-27T19:13:57.500Z,12.00
2017-08-27T19:16:25.995Z,6.03
2017-08-27T19:18:53.585Z,10.43
2017-08-27T19:21:21.508Z,13.77
2017-08-27T19:23:49.056Z,11.40
2017-08-27T19:26:18.597Z,10.40
2017-08-27T19:28:46.460Z,7.80
2017-08-27T19:31:14.104Z,6.50
2017-08-27T19:33:41.756Z,5.13
2017-08-27T19:36:09.679Z,6.10
2017-08-27T19:38:37.331Z,5.43
2017-08-27T19:41:04.923Z,5.20
2017-08-27T19:43:32.911Z,4.57
2017-08-27T19:46:00.540Z,5.07
2017-08-27T19:48:28.180Z,4.50
2017-08-27T19:50:56.053Z,5.87
2017-08-27T19:53:23.653Z,5.07
2017-08-27T19:55:51.257Z,5.27
2017-08-27T19:58:19.107Z,5.33
2017-08-27T20:00:46.708Z,4.77
2017-08-27T20:03:14.319Z,4.47
2017-08-27T20:05:42.241Z,4.73
2017-08-27T20:08:09.918Z,4.33
2017-08-27T20:10:37.592Z,4.53
2017-08-27T20:13:05.620Z,4.50
2017-08-27T20:15:33.185Z,5.20
2017-08-27T20:18:00.777Z,9.03
2017-08-27T20:20:28.682Z,7.00
2017-08-27T20:22:56.219Z,12.17
2017-08-27T20:25:23.756Z,14.53
2017-08-27T20:27:51.592Z,8.43
2017-08-27T20:30:19.140Z,12.07
2017-08-27T20:32:46.772Z,14.80
2017-08-27T20:35:14.749Z,14.33
2017-08-27T20:37:42.377Z,11.60
2017-08-27T20:40:10.008Z,9.70
2017-08-27T20:42:37.952Z,7.70
2017-08-27T20:45:05.473Z,8.40
2017-08-27T20:47:33.006Z,8.53
2017-08-27T20:50:00.936Z,7.63
2017-08-27T20:52:28.489Z,8.07
2017-08-27T20:54:56.033Z,8.20
2017-08-27T20:57:23.943Z,5.97
2017-08-27T20:59:51.493Z,6.47
2017-08-27T21:02:19.083Z,6.47
2017-08-27T21:04:47.021Z,7.53
2017-08-27T21:07:14.546Z,8.27
2017-08-27T21:09:42.085Z,6.10
2017-08-27T21:12:10.103Z,5.77
2017-08-27T21:14:37.661Z,7.03
2017-08-27T21:17:05.193Z,6.10
2017-08-27T21:19:33.129Z,6.03
2017-08-27T21:22:00.678Z,6.23
2017-08-27T21:24:28.260Z,6.80
2017-08-27T21:26:56.092Z,7.10
2017-08-27T21:29:23.685Z,5.83
2017-08-27T21:31:51.197Z,6.80
2017-08-27T21:34:19.106Z,10.37
2017-08-27T21:36:46.634Z,12.70
2017-08-27T21:39:14.173Z,9.90
2017-08-27T21:41:42.050Z,7.03
2017-08-27T21:44:09.564Z,6.70
2017-08-27T21:46:37.112Z,11.03
2017-08-27T21:49:04.922Z,9.73
2017-08-27T21:51:32.455Z,9.30
2017-08-27T21:53:59.987Z,7.90
2017-08-27T21:56:27.822Z,9.57
2017-08-27T21:58:55.376Z,8.17
2017-08-27T22:01:23.473Z,7.17
2017-08-27T22:03:51.325Z,8.37
2017-08-27T22:06:18.868Z,8.67
2017-08-27T22:08:46.388Z,8.97
2017-08-27T22:11:14.209Z,7.63
2017-08-27T22:13:41.752Z,10.37
2017-08-27T22:16:09.280Z,9.33
2017-08-27T22:18:37.123Z,7.90
2017-08-27T22:21:04.644Z,7.90
2017-08-27T22:23:32.179Z,9.07
2017-08-27T22:26:00.102Z,10.90
2017-08-27T22:28:27.650Z,9.40
2017-08-27T22:30:55.201Z,8.17
2017-08-27T22:33:23.074Z,10.80
2017-08-27T22:35:50.627Z,7.70
2017-08-27T22:38:18.194Z,9.00
2017-08-27T22:40:46.055Z,9.33
2017-08-27T22:43:13.574Z,8.70
2017-08-27T22:45:41.140Z,8.47
2017-08-27T22:48:09.062Z,8.70
2017-08-27T22:50:36.590Z,8.07
2017-08-27T22:53:04.119Z,8.80
2017-08-27T22:55:32.754Z,8.60
2017-08-27T22:58:00.275Z,7.33
2017-08-27T23:00:27.809Z,8.27
2017-08-27T23:02:55.605Z,8.17
2017-08-27T23:05:23.178Z,8.10
2017-08-27T23:07:50.719Z,8.00
2017-08-27T23:10:18.712Z,7.90
2017-08-27T23:12:46.255Z,8.13
2017-08-27T23:15:13.820Z,8.77
2017-08-27T23:17:41.748Z,8.40
2017-08-27T23:20:09.285Z,9.00
2017-08-27T23:22:36.836Z,9.57
2017-08-27T23:25:04.674Z,8.13
2017-08-27T23:27:32.234Z,9.10
2017-08-27T23:29:59.787Z,8.87
2017-08-27T23:32:27.696Z,8.43
2017-08-27T23:34:55.213Z,10.47
2017-08-27T23:37:22.729Z,9.90
2017-08-27T23:39:50.594Z,9.10
2017-08-27T23:42:18.127Z,9.20
2017-08-27T23:44:45.653Z,9.47
2017-08-27T23:47:13.500Z,8.80
2017-08-27T23:49:41.054Z,9.23
2017-08-27T23:52:08.559Z,7.40
2017-08-27T23:54:36.470Z,7.97
2017-08-27T23:57:03.989Z,8.00
2017-08-27T23:59:31.537Z,8.07
